createdAt,value
2023-01-09T06:02:45.862Z,6.28
2023-01-09T06:05:13.146Z,6.30
2023-01-09T06:07:41.998Z,6.37
2023-01-09T06:10:11.552Z,6.43
2023-01-09T06:12:38.213Z,6.41
2023-01-09T06:15:06.901Z,6.46
2023-01-09T06:17:35.203Z,6.56
2023-01-09T06:20:01.797Z,6.55
2023-01-09T06:22:28.310Z,6.47
2023-01-09T06:24:54.772Z,6.44
2023-01-09T06:27:21.231Z,6.29
2023-01-09T06:29:47.731Z,6.36
2023-01-09T06:32:14.237Z,6.28
2023-01-09T06:34:40.726Z,6.26
2023-01-09T06:37:07.287Z,6.14
2023-01-09T06:39:33.789Z,6.19
2023-01-09T06:42:00.282Z,6.17
2023-01-09T06:44:26.789Z,6.10
2023-01-09T06:46:53.320Z,6.06
2023-01-09T06:49:23.480Z,6.11
2023-01-09T06:51:51.085Z,6.08
2023-01-09T06:54:18.337Z,6.09
2023-01-09T06:56:44.898Z,6.05
2023-01-09T06:59:12.199Z,6.01
2023-01-09T07:01:42.065Z,6.10
2023-01-09T07:04:12.326Z,6.01
2023-01-09T07:06:39.236Z,6.05
2023-01-09T07:09:08.622Z,6.07
2023-01-09T07:11:35.079Z,5.99
2023-01-09T07:14:01.534Z,5.98
2023-01-09T07:16:28.029Z,6.08
2023-01-09T07:18:54.870Z,6.00
2023-01-09T07:21:21.581Z,5.95
2023-01-09T07:23:48.232Z,5.98
2023-01-09T07:26:14.776Z,5.95
2023-01-09T07:28:41.248Z,6.04
2023-01-09T07:31:08.122Z,6.09
2023-01-09T07:33:35.319Z,6.09
2023-01-09T07:36:01.782Z,6.09
2023-01-09T07:38:28.299Z,6.03
2023-01-09T07:40:54.772Z,6.16
2023-01-09T07:43:21.241Z,6.00
2023-01-09T07:45:47.735Z,6.19
2023-01-09T07:48:14.269Z,6.11
2023-01-09T07:50:40.826Z,6.19
2023-01-09T07:53:07.283Z,6.28
2023-01-09T07:55:33.749Z,6.27
2023-01-09T07:58:00.223Z,6.22
2023-01-09T08:00:26.692Z,6.30
2023-01-09T08:02:54.102Z,6.42
2023-01-09T08:05:21.029Z,6.35
2023-01-09T08:07:47.974Z,6.24
2023-01-09T08:10:19.470Z,6.21
2023-01-09T08:12:47.236Z,6.41
2023-01-09T08:15:14.480Z,6.41
2023-01-09T08:17:43.275Z,6.40
2023-01-09T08:20:14.928Z,6.43
2023-01-09T08:22:42.338Z,6.56
2023-01-09T08:25:12.261Z,6.39
2023-01-09T08:27:39.344Z,6.46
2023-01-09T08:30:06.431Z,6.31
2023-01-09T08:32:32.983Z,6.26
2023-01-09T08:34:59.467Z,6.42
2023-01-09T08:37:26.004Z,6.62
2023-01-09T08:39:53.226Z,6.50
2023-01-09T08:42:38.755Z,6.42
2023-01-09T08:45:24.571Z,6.57
2023-01-09T08:47:51.129Z,6.55
2023-01-09T08:50:26.301Z,6.65
2023-01-09T08:52:52.847Z,6.84
2023-01-09T08:55:19.331Z,6.82
2023-01-09T08:57:50.397Z,6.73
2023-01-09T09:00:18.448Z,6.62
2023-01-09T09:02:45.068Z,6.59
2023-01-09T09:05:11.652Z,6.78
2023-01-09T09:07:38.104Z,6.66
2023-01-09T09:10:04.959Z,6.90
2023-01-09T09:12:31.435Z,6.93
2023-01-09T09:15:13.208Z,6.97
2023-01-09T09:17:40.432Z,6.97
2023-01-09T09:20:08.816Z,6.88
2023-01-09T09:22:35.866Z,7.01
2023-01-09T09:25:04.605Z,7.31
2023-01-09T09:27:31.986Z,6.81
2023-01-09T09:29:58.535Z,6.93
2023-01-09T09:32:25.094Z,6.97
2023-01-09T09:34:51.624Z,6.91
2023-01-09T09:37:18.198Z,6.97
2023-01-09T09:39:47.492Z,6.83
2023-01-09T09:42:32.588Z,7.00
2023-01-09T09:45:43.079Z,7.06
2023-01-09T09:48:28.507Z,6.92
2023-01-09T09:51:04.739Z,6.82
2023-01-09T09:53:34.016Z,6.78
2023-01-09T09:56:02.567Z,6.99
2023-01-09T09:58:38.376Z,7.04
2023-01-09T10:01:06.334Z,7.23
2023-01-09T10:03:39.735Z,6.91
2023-01-09T10:06:13.420Z,6.93
2023-01-09T10:08:52.342Z,6.88
2023-01-09T10:11:35.014Z,7.20
2023-01-09T10:14:08.211Z,7.01
2023-01-09T10:17:19.007Z,7.12
2023-01-09T10:19:57.736Z,6.97
2023-01-09T10:22:41.229Z,7.12
2023-01-09T10:25:45.027Z,7.14
2023-01-09T10:28:36.221Z,7.09
2023-01-09T10:31:12.147Z,7.23
2023-01-09T10:34:19.358Z,7.00
2023-01-09T10:36:59.126Z,7.23
2023-01-09T10:39:43.358Z,7.36
2023-01-09T10:42:18.782Z,7.23
2023-01-09T10:44:59.548Z,7.13
2023-01-09T10:47:32.179Z,7.08
2023-01-09T10:49:59.571Z,7.20
2023-01-09T10:52:35.144Z,7.00
2023-01-09T10:55:13.227Z,6.97
2023-01-09T10:57:50.591Z,6.93
2023-01-09T11:00:23.050Z,6.96
2023-01-09T11:02:51.425Z,7.03
2023-01-09T11:05:24.487Z,7.06
2023-01-09T11:07:59.493Z,6.88
2023-01-09T11:10:49.455Z,6.94
2023-01-09T11:13:18.749Z,7.00
2023-01-09T11:15:45.495Z,6.82
2023-01-09T11:18:26.197Z,6.98
2023-01-09T11:20:53.346Z,7.11
2023-01-09T11:23:31.625Z,7.24
2023-01-09T11:26:00.778Z,7.36
2023-01-09T11:28:28.203Z,7.26
2023-01-09T11:31:04.000Z,7.03
2023-01-09T11:33:35.158Z,7.16
2023-01-09T11:36:15.293Z,7.29
2023-01-09T11:38:48.487Z,7.09
2023-01-09T11:41:22.308Z,7.18
2023-01-09T11:43:51.873Z,6.94
2023-01-09T11:46:30.712Z,7.18
2023-01-09T11:48:58.560Z,7.16
2023-01-09T11:51:28.450Z,7.33
2023-01-09T11:54:06.255Z,7.37
2023-01-09T11:56:32.949Z,7.40
2023-01-09T11:59:00.131Z,7.22
2023-01-09T12:01:47.852Z,7.23
2023-01-09T12:04:30.135Z,7.26
2023-01-09T12:07:17.224Z,7.41
2023-01-09T12:09:59.013Z,7.16
2023-01-09T12:12:29.277Z,7.25
2023-01-09T12:15:24.448Z,7.05
2023-01-09T12:17:57.763Z,7.06
2023-01-09T12:20:33.665Z,6.94
2023-01-09T12:23:20.287Z,7.23
2023-01-09T12:25:52.743Z,7.10
2023-01-09T12:28:22.291Z,7.04
2023-01-09T12:31:04.123Z,7.11
2023-01-09T12:33:36.653Z,7.13
2023-01-09T12:36:21.605Z,6.78
2023-01-09T12:39:06.431Z,6.91
2023-01-09T12:41:53.324Z,7.26
2023-01-09T12:44:47.744Z,7.35
2023-01-09T12:47:24.243Z,7.59
2023-01-09T12:50:02.460Z,7.36
2023-01-09T12:52:34.771Z,7.34
2023-01-09T12:55:23.962Z,7.52
2023-01-09T12:57:54.795Z,7.50
2023-01-09T13:00:37.516Z,7.22
2023-01-09T13:03:17.521Z,7.40
2023-01-09T13:05:53.224Z,7.29
2023-01-09T13:08:19.671Z,7.29
2023-01-09T13:10:51.807Z,7.29
2023-01-09T13:13:55.298Z,7.37
2023-01-09T13:16:32.144Z,7.30
2023-01-09T13:19:17.076Z,7.19
2023-01-09T13:21:44.055Z,7.33
2023-01-09T13:24:29.038Z,7.54
2023-01-09T13:27:13.097Z,7.58
2023-01-09T13:29:50.805Z,7.54
2023-01-09T13:32:41.428Z,7.54
2023-01-09T13:35:14.543Z,7.66
2023-01-09T13:37:41.409Z,7.44
2023-01-09T13:40:20.051Z,7.26
2023-01-09T13:42:57.936Z,7.38
2023-01-09T13:45:27.337Z,7.47
2023-01-09T13:48:14.451Z,7.55
2023-01-09T13:50:42.107Z,7.55
2023-01-09T13:53:17.519Z,7.40
2023-01-09T13:55:59.519Z,7.63
2023-01-09T13:58:55.472Z,7.67
2023-01-09T14:01:25.133Z,7.52
2023-01-09T14:04:24.383Z,7.56
2023-01-09T14:07:21.954Z,7.62
2023-01-09T14:10:00.401Z,7.15
2023-01-09T14:12:29.780Z,7.04
2023-01-09T14:15:02.190Z,6.86
2023-01-09T14:17:37.592Z,6.72
2023-01-09T14:20:07.166Z,6.94
2023-01-09T14:22:45.600Z,7.19
2023-01-09T14:25:26.073Z,7.77
2023-01-09T14:27:55.542Z,8.28
2023-01-09T14:30:35.390Z,7.29
2023-01-09T14:33:27.536Z,7.47
2023-01-09T14:36:12.644Z,7.47
2023-01-09T14:38:54.157Z,7.24
2023-01-09T14:41:51.703Z,7.26
2023-01-09T14:44:29.560Z,7.26
2023-01-09T14:47:01.771Z,7.36
2023-01-09T14:49:37.302Z,7.42
2023-01-09T14:52:15.517Z,7.33
2023-01-09T14:54:43.637Z,7.20
2023-01-09T14:57:34.143Z,7.22
2023-01-09T15:00:20.666Z,7.39
2023-01-09T15:02:48.562Z,7.11
2023-01-09T15:05:19.836Z,7.03
2023-01-09T15:08:00.195Z,6.07
2023-01-09T15:10:31.344Z,6.06
2023-01-09T15:13:00.908Z,5.90
2023-01-09T15:15:28.606Z,6.10
2023-01-09T15:17:59.043Z,5.88
2023-01-09T15:20:29.891Z,5.93
2023-01-09T15:22:57.810Z,5.92
2023-01-09T15:25:40.401Z,5.93
2023-01-09T15:28:28.249Z,5.71
2023-01-09T15:31:09.664Z,5.61
2023-01-09T15:33:39.380Z,5.68
2023-01-09T15:36:15.639Z,5.54
2023-01-09T15:38:43.703Z,5.47
2023-01-09T15:41:35.277Z,5.51
2023-01-09T15:44:04.079Z,5.48
2023-01-09T15:46:30.964Z,5.30
2023-01-09T15:48:57.797Z,5.26
2023-01-09T15:51:25.181Z,5.23
2023-01-09T15:53:51.816Z,5.20
2023-01-09T15:56:24.171Z,5.32
2023-01-09T15:58:54.823Z,5.43
2023-01-09T16:01:29.786Z,5.52
2023-01-09T16:04:12.422Z,5.47
2023-01-09T16:06:48.011Z,5.39
2023-01-09T16:09:22.720Z,5.56
2023-01-09T16:11:53.064Z,5.66
2023-01-09T16:14:38.486Z,5.61
2023-01-09T16:17:11.760Z,5.62
2023-01-09T16:19:41.207Z,5.55
2023-01-09T16:22:30.978Z,5.59
2023-01-09T16:25:02.845Z,5.57
2023-01-09T16:27:33.813Z,5.57
2023-01-09T16:30:29.729Z,5.60
2023-01-09T16:32:56.576Z,5.47
2023-01-09T16:35:27.287Z,5.67
2023-01-09T16:37:53.916Z,5.71
2023-01-09T16:40:26.453Z,5.55
2023-01-09T16:43:03.338Z,5.44
2023-01-09T16:45:38.681Z,5.40
2023-01-09T16:48:11.394Z,5.36
2023-01-09T16:50:37.959Z,5.30
2023-01-09T16:53:22.063Z,5.39
2023-01-09T16:55:49.363Z,5.38
2023-01-09T16:58:22.367Z,5.40
2023-01-09T17:00:49.078Z,5.51
2023-01-09T17:03:16.340Z,5.38
2023-01-09T17:05:43.235Z,5.33
2023-01-09T17:08:32.221Z,5.47
2023-01-09T17:10:58.896Z,5.32
2023-01-09T17:13:26.421Z,5.44
2023-01-09T17:15:54.815Z,5.29
2023-01-09T17:18:23.398Z,5.11
2023-01-09T17:20:52.974Z,5.43
2023-01-09T17:23:22.249Z,5.50
2023-01-09T17:26:09.667Z,5.39
2023-01-09T17:28:36.920Z,5.54
2023-01-09T17:31:06.665Z,5.47
2023-01-09T17:33:33.662Z,5.17
2023-01-09T17:36:02.900Z,5.21
2023-01-09T17:38:29.611Z,5.21
2023-01-09T17:40:56.210Z,5.27
2023-01-09T17:43:22.944Z,5.28
2023-01-09T17:45:49.519Z,5.34
2023-01-09T17:48:19.409Z,5.25
2023-01-09T17:50:46.851Z,5.12
2023-01-09T17:53:13.950Z,5.11
2023-01-09T17:55:41.647Z,5.13
2023-01-09T17:58:23.530Z,5.15
2023-01-09T18:00:50.040Z,5.19
2023-01-09T18:03:16.597Z,5.10
2023-01-09T18:06:02.846Z,5.17
2023-01-09T18:08:49.720Z,5.17
2023-01-09T18:11:36.712Z,5.13
2023-01-09T18:14:23.623Z,5.15
2023-01-09T18:17:12.207Z,5.34
2023-01-09T18:19:59.031Z,5.53
2023-01-09T18:22:45.899Z,5.75
2023-01-09T18:25:32.773Z,5.38
2023-01-09T18:28:19.659Z,5.46
2023-01-09T18:31:06.477Z,5.38
2023-01-09T18:33:56.325Z,5.38
2023-01-09T18:36:43.195Z,5.49
2023-01-09T18:39:30.157Z,5.31
2023-01-09T18:42:17.020Z,5.31
2023-01-09T18:45:04.272Z,5.16
2023-01-09T18:47:51.177Z,5.17
2023-01-09T18:50:38.007Z,5.12
2023-01-09T18:53:24.828Z,5.31
2023-01-09T18:56:11.689Z,5.20
2023-01-09T18:58:58.639Z,5.28
2023-01-09T19:01:45.541Z,5.46
2023-01-09T19:04:32.318Z,5.54
2023-01-09T19:07:19.295Z,5.44
2023-01-09T19:10:06.840Z,5.47
2023-01-09T19:12:53.689Z,5.45
2023-01-09T19:15:40.538Z,5.30
2023-01-09T19:18:28.304Z,5.18
2023-01-09T19:21:20.605Z,5.05
2023-01-09T19:24:07.525Z,4.99
2023-01-09T19:26:54.391Z,4.90
2023-01-09T19:29:41.250Z,4.95
2023-01-09T19:32:28.069Z,4.99
2023-01-09T19:35:15.123Z,4.92
2023-01-09T19:38:01.955Z,5.07
2023-01-09T19:40:49.064Z,5.02
2023-01-09T19:43:36.561Z,4.98
2023-01-09T19:46:25.301Z,5.13
2023-01-09T19:49:12.136Z,5.13
2023-01-09T19:52:00.558Z,5.11
2023-01-09T19:54:47.871Z,5.13
2023-01-09T19:57:34.698Z,5.18
2023-01-09T20:00:21.659Z,5.29
2023-01-09T20:03:08.509Z,5.19
2023-01-09T20:05:55.347Z,5.26
2023-01-09T20:08:53.662Z,5.30
2023-01-09T20:11:41.503Z,5.35
2023-01-09T20:14:28.332Z,5.33
2023-01-09T20:17:15.229Z,5.26
2023-01-09T20:20:02.087Z,5.34
2023-01-09T20:22:48.902Z,5.25
2023-01-09T20:25:35.740Z,5.35
2023-01-09T20:28:23.044Z,5.28
2023-01-09T20:31:12.562Z,5.26
